sensor_id;sensor_type;location;lat;lon;timestamp;P1;durP1;ratioP1;P2;durP2;ratioP2
5827;SDS011;42583;50.240;8.444;2023-04-07T00:08:36;8.90;;;4.60;;
5827;SDS011;42583;50.240;8.444;2023-04-07T00:23:36;7.53;;;4.47;;
5827;SDS011;42583;50.240;8.444;2023-04-07T00:38:37;18.92;;;5.72;;
5827;SDS011;42583;50.240;8.444;2023-04-07T00:53:40;20.55;;;5.47;;
5827;SDS011;42583;50.240;8.444;2023-04-07T01:40:02;502.40;;;11.70;;
5827;SDS011;42583;50.240;8.444;2023-04-07T01:55:04;430.30;;;11.07;;
5827;SDS011;42583;50.240;8.444;2023-04-07T02:10:09;415.10;;;11.15;;
5827;SDS011;42583;50.240;8.444;2023-04-07T02:25:25;307.48;;;10.52;;
5827;SDS011;42583;50.240;8.444;2023-04-07T02:40:25;56.08;;;7.75;;
5827;SDS011;42583;50.240;8.444;2023-04-07T02:55:26;8.25;;;4.22;;
5827;SDS011;42583;50.240;8.444;2023-04-07T03:10:27;7.88;;;4.38;;
5827;SDS011;42583;50.240;8.444;2023-04-07T03:25:27;9.00;;;4.50;;
5827;SDS011;42583;50.240;8.444;2023-04-07T03:40:28;10.18;;;4.25;;
5827;SDS011;42583;50.240;8.444;2023-04-07T03:55:28;12.05;;;4.28;;
5827;SDS011;42583;50.240;8.444;2023-04-07T04:10:30;10.95;;;4.57;;
5827;SDS011;42583;50.240;8.444;2023-04-07T04:25:31;3.78;;;2.05;;
5827;SDS011;42583;50.240;8.444;2023-04-07T04:40:34;3.22;;;2.20;;
5827;SDS011;42583;50.240;8.444;2023-04-07T04:55:37;5.55;;;3.00;;
5827;SDS011;42583;50.240;8.444;2023-04-07T05:10:42;7.30;;;3.78;;
5827;SDS011;42583;50.240;8.444;2023-04-07T05:25:43;8.15;;;3.65;;
5827;SDS011;42583;50.240;8.444;2023-04-07T05:40:43;79.13;;;6.20;;
5827;SDS011;42583;50.240;8.444;2023-04-07T05:55:45;8.68;;;4.68;;
5827;SDS011;42583;50.240;8.444;2023-04-07T06:10:52;11.75;;;5.03;;
5827;SDS011;42583;50.240;8.444;2023-04-07T06:25:53;15.00;;;6.25;;
5827;SDS011;42583;50.240;8.444;2023-04-07T06:41:00;8.82;;;4.20;;
5827;SDS011;42583;50.240;8.444;2023-04-07T06:56:01;7.80;;;3.85;;
5827;SDS011;42583;50.240;8.444;2023-04-07T07:11:09;5.10;;;2.97;;
5827;SDS011;42583;50.240;8.444;2023-04-07T07:26:10;4.75;;;2.70;;
5827;SDS011;42583;50.240;8.444;2023-04-07T07:41:10;4.70;;;2.78;;
5827;SDS011;42583;50.240;8.444;2023-04-07T07:56:11;4.03;;;2.65;;
5827;SDS011;42583;50.240;8.444;2023-04-07T08:11:12;4.13;;;2.55;;
5827;SDS011;42583;50.240;8.444;2023-04-07T08:26:12;4.40;;;2.30;;
5827;SDS011;42583;50.240;8.444;2023-04-07T08:41:17;2.40;;;1.60;;
5827;SDS011;42583;50.240;8.444;2023-04-07T08:56:22;2.92;;;1.85;;
5827;SDS011;42583;50.240;8.444;2023-04-07T09:11:24;186.85;;;4.65;;
5827;SDS011;42583;50.240;8.444;2023-04-07T09:26:26;333.17;;;6.80;;
5827;SDS011;42583;50.240;8.444;2023-04-07T09:41:28;296.67;;;6.50;;
5827;SDS011;42583;50.240;8.444;2023-04-07T09:56:29;220.27;;;5.30;;
5827;SDS011;42583;50.240;8.444;2023-04-07T10:11:30;63.33;;;3.53;;
5827;SDS011;42583;50.240;8.444;2023-04-07T10:26:33;23.20;;;3.97;;
5827;SDS011;42583;50.240;8.444;2023-04-07T10:41:36;3.58;;;1.83;;
5827;SDS011;42583;50.240;8.444;2023-04-07T11:12:06;2.83;;;1.70;;
5827;SDS011;42583;50.240;8.444;2023-04-07T11:27:17;1.77;;;1.58;;
5827;SDS011;42583;50.240;8.444;2023-04-07T11:42:33;2.70;;;1.50;;
5827;SDS011;42583;50.240;8.444;2023-04-07T11:57:38;1.40;;;1.30;;
5827;SDS011;42583;50.240;8.444;2023-04-07T12:12:38;1.77;;;1.15;;
5827;SDS011;42583;50.240;8.444;2023-04-07T12:27:39;1.70;;;1.50;;
5827;SDS011;42583;50.240;8.444;2023-04-07T12:42:39;1.83;;;1.60;;
5827;SDS011;42583;50.240;8.444;2023-04-07T12:57:40;3.00;;;2.20;;
5827;SDS011;42583;50.240;8.444;2023-04-07T13:12:40;1.00;;;1.00;;
5827;SDS011;42583;50.240;8.444;2023-04-07T13:27:41;1.20;;;1.10;;
5827;SDS011;42583;50.240;8.444;2023-04-07T13:42:42;0.98;;;0.98;;
5827;SDS011;42583;50.240;8.444;2023-04-07T13:57:42;1.00;;;1.00;;
5827;SDS011;42583;50.240;8.444;2023-04-07T14:12:43;1.20;;;1.10;;
5827;SDS011;42583;50.240;8.444;2023-04-07T14:27:43;1.65;;;1.40;;
5827;SDS011;42583;50.240;8.444;2023-04-07T14:42:44;1.40;;;1.30;;
5827;SDS011;42583;50.240;8.444;2023-04-07T14:57:45;0.93;;;0.90;;
5827;SDS011;42583;50.240;8.444;2023-04-07T15:12:45;0.80;;;0.80;;
5827;SDS011;42583;50.240;8.444;2023-04-07T15:27:47;0.80;;;0.80;;
5827;SDS011;42583;50.240;8.444;2023-04-07T15:42:48;0.90;;;0.90;;
5827;SDS011;42583;50.240;8.444;2023-04-07T15:57:48;8.55;;;4.70;;
5827;SDS011;42583;50.240;8.444;2023-04-07T16:12:52;1.20;;;1.05;;
5827;SDS011;42583;50.240;8.444;2023-04-07T16:27:52;1.25;;;1.15;;
5827;SDS011;42583;50.240;8.444;2023-04-07T16:42:53;1.10;;;1.00;;
5827;SDS011;42583;50.240;8.444;2023-04-07T16:57:53;1.33;;;1.20;;
5827;SDS011;42583;50.240;8.444;2023-04-07T17:12:54;1.33;;;1.23;;
5827;SDS011;42583;50.240;8.444;2023-04-07T17:27:55;1.33;;;1.23;;
5827;SDS011;42583;50.240;8.444;2023-04-07T17:42:55;1.33;;;1.23;;
5827;SDS011;42583;50.240;8.444;2023-04-07T17:57:57;1.40;;;1.27;;
5827;SDS011;42583;50.240;8.444;2023-04-07T18:12:59;1.92;;;1.42;;
5827;SDS011;42583;50.240;8.444;2023-04-07T18:28:02;3.05;;;2.08;;
5827;SDS011;42583;50.240;8.444;2023-04-07T18:43:02;3.45;;;2.38;;
5827;SDS011;42583;50.240;8.444;2023-04-07T18:58:03;3.08;;;1.90;;
5827;SDS011;42583;50.240;8.444;2023-04-07T19:13:07;3.15;;;2.63;;
5827;SDS011;42583;50.240;8.444;2023-04-07T19:28:08;4.72;;;2.90;;
5827;SDS011;42583;50.240;8.444;2023-04-07T19:43:12;4.90;;;3.10;;
5827;SDS011;42583;50.240;8.444;2023-04-07T19:58:15;4.05;;;2.65;;
5827;SDS011;42583;50.240;8.444;2023-04-07T20:13:20;8.40;;;3.28;;
5827;SDS011;42583;50.240;8.444;2023-04-07T20:28:22;2.53;;;1.92;;
5827;SDS011;42583;50.240;8.444;2023-04-07T20:43:23;3.15;;;2.10;;
5827;SDS011;42583;50.240;8.444;2023-04-07T20:58:24;2.90;;;2.20;;
5827;SDS011;42583;50.240;8.444;2023-04-07T21:13:26;2.60;;;2.00;;
5827;SDS011;42583;50.240;8.444;2023-04-07T21:28:28;4.00;;;2.63;;
5827;SDS011;42583;50.240;8.444;2023-04-07T21:43:28;3.58;;;2.35;;
5827;SDS011;42583;50.240;8.444;2023-04-07T21:58:30;5.63;;;3.17;;
5827;SDS011;42583;50.240;8.444;2023-04-07T22:13:30;4.05;;;2.53;;
5827;SDS011;42583;50.240;8.444;2023-04-07T22:28:31;8.90;;;5.53;;
5827;SDS011;42583;50.240;8.444;2023-04-07T22:43:32;2.92;;;1.95;;
5827;SDS011;42583;50.240;8.444;2023-04-07T22:58:33;9.00;;;4.85;;
5827;SDS011;42583;50.240;8.444;2023-04-07T23:13:33;4.20;;;1.80;;
5827;SDS011;42583;50.240;8.444;2023-04-07T23:28:34;3.70;;;1.90;;
5827;SDS011;42583;50.240;8.444;2023-04-07T23:43:35;3.28;;;2.33;;
5827;SDS011;42583;50.240;8.444;2023-04-07T23:58:36;3.10;;;2.13;;
